createdAt,value
2023-03-26T00:02:53.513Z,10.13
2023-03-26T00:12:52.974Z,10.05
2023-03-26T00:22:53.762Z,9.94
2023-03-26T00:42:55.352Z,9.68
2023-03-26T00:52:56.111Z,9.42
2023-03-26T01:02:56.967Z,9.40
2023-03-26T01:12:57.533Z,9.19
2023-03-26T01:22:58.361Z,9.25
2023-03-26T01:32:58.997Z,9.25
2023-03-26T01:42:59.652Z,9.36
2023-03-26T01:53:00.359Z,9.51
2023-03-26T02:03:01.149Z,9.53
2023-03-26T02:13:01.763Z,9.48
2023-03-26T02:23:02.541Z,9.39
2023-03-26T02:33:03.384Z,9.54
2023-03-26T02:43:04.132Z,9.57
2023-03-26T02:53:04.897Z,9.25
2023-03-26T03:03:05.824Z,8.82
2023-03-26T03:13:06.393Z,8.78
2023-03-26T03:23:07.101Z,8.61
2023-03-26T03:33:08.159Z,8.55
2023-03-26T03:43:08.670Z,8.51
2023-03-26T03:50:14.946Z,8.51
2023-03-26T03:53:09.263Z,8.51
2023-03-26T04:03:10.028Z,8.48
2023-03-26T04:13:10.516Z,8.52
2023-03-26T04:23:11.197Z,8.71
2023-03-26T04:33:11.830Z,8.73
2023-03-26T04:53:13.168Z,8.42
2023-03-26T05:03:13.777Z,8.33
2023-03-26T05:13:14.400Z,8.69
2023-03-26T05:23:15.071Z,8.85
2023-03-26T05:33:15.828Z,8.98
2023-03-26T05:43:16.393Z,9.44
2023-03-26T06:03:17.983Z,9.89
2023-03-26T06:13:18.644Z,10.22
2023-03-26T06:23:19.361Z,10.42
2023-03-26T06:33:21.128Z,10.68
2023-03-26T06:43:21.273Z,11.37
2023-03-26T06:53:21.982Z,11.85
2023-03-26T07:03:22.940Z,11.92
2023-03-26T07:13:23.868Z,11.93
2023-03-26T07:23:24.851Z,12.12
2023-03-26T07:33:25.874Z,12.19
2023-03-26T07:43:26.948Z,12.66
2023-03-26T07:53:27.932Z,12.95
2023-03-26T08:13:30.141Z,13.70
2023-03-26T08:23:31.227Z,13.45
2023-03-26T08:33:32.315Z,13.22
2023-03-26T08:43:33.358Z,13.72
2023-03-26T08:53:34.460Z,13.54
2023-03-26T09:03:35.560Z,14.59
2023-03-26T09:13:36.683Z,14.45
2023-03-26T09:23:37.887Z,14.31
2023-03-26T09:33:39.059Z,14.30
2023-03-26T09:43:40.233Z,14.16
2023-03-26T09:53:41.356Z,14.32
2023-03-26T10:03:42.577Z,16.16
2023-03-26T10:13:43.786Z,15.84
2023-03-26T10:23:45.027Z,15.97
2023-03-26T10:33:46.277Z,15.51
2023-03-26T10:53:48.886Z,15.11
2023-03-26T11:03:50.154Z,15.63
2023-03-26T11:13:51.452Z,15.37
2023-03-26T11:24:05.015Z,15.70
2023-03-26T11:33:54.892Z,15.82
2023-03-26T11:43:55.384Z,15.92
2023-03-26T11:53:56.550Z,15.93
2023-03-26T12:03:57.795Z,15.98
2023-03-26T12:13:59.250Z,16.14
2023-03-26T12:24:00.261Z,16.09
2023-03-26T12:44:48.007Z,16.18
2023-03-26T13:04:05.410Z,16.47
2023-03-26T13:14:06.761Z,16.74
2023-03-26T13:24:08.050Z,16.82
2023-03-26T13:34:09.410Z,16.84
2023-03-26T13:44:10.738Z,17.05
2023-03-26T13:54:12.088Z,16.83
2023-03-26T14:04:13.465Z,16.99
2023-03-26T14:14:14.782Z,17.16
2023-03-26T14:24:16.366Z,17.35
2023-03-26T14:34:17.548Z,17.49
